Time;durP1;ratioP1;P1;durP2;ratioP2;P2;SDS_P1;SDS_P2;PMS_P1;PMS_P2;Temp;Humidity;BMP_temperature;BMP_pressure;BME280_temperature;BME280_humidity;BME280_pressure;Samples;Min_cycle;Max_cycle;Signal;HPM_P1;HPM_P2
2023/06/09 00:02:27;;;;;;;18.10;14.30;;;;;;;14.01;78.92;96960.60;104970;1258;98113;-72
2023/06/09 00:04:56;;;;;;;16.90;14.00;;;;;;;14.03;79.05;96959.64;105249;1255;97173;-71
2023/06/09 00:07:27;;;;;;;21.30;14.30;;;;;;;14.06;78.97;96961.29;105247;1256;102774;-72
2023/06/09 00:09:55;;;;;;;15.70;13.30;;;;;;;14.08;79.00;96958.50;105104;1268;101981;-72
2023/06/09 00:12:23;;;;;;;16.80;13.10;;;;;;;14.03;78.97;96955.16;105091;1251;100480;-72
2023/06/09 00:14:51;;;;;;;19.40;12.60;;;;;;;14.01;78.96;96957.46;104940;1259;97806;-71
2023/06/09 00:17:19;;;;;;;17.70;12.90;;;;;;;14.00;78.96;96960.16;105150;1256;97728;-72
2023/06/09 00:19:48;;;;;;;15.10;13.40;;;;;;;13.99;78.87;96958.25;105078;1264;102311;-72
2023/06/09 00:22:17;;;;;;;15.50;12.50;;;;;;;13.98;78.86;96958.40;105084;1251;101990;-72
2023/06/09 00:24:46;;;;;;;14.00;12.30;;;;;;;13.96;78.86;96960.36;105133;1256;100688;-71
2023/06/09 00:27:14;;;;;;;15.20;12.30;;;;;;;13.94;78.92;96958.57;105221;1263;96543;-73
2023/06/09 00:29:42;;;;;;;15.40;12.60;;;;;;;13.94;78.94;96956.02;105077;1251;96970;-71
2023/06/09 00:32:11;;;;;;;18.10;13.00;;;;;;;13.93;78.85;96955.58;105043;1257;102842;-72
2023/06/09 00:34:39;;;;;;;14.90;12.80;;;;;;;13.90;78.95;96956.98;105110;1256;101636;-72
2023/06/09 00:37:07;;;;;;;16.60;12.80;;;;;;;13.88;79.18;96956.58;104971;1259;100423;-72
2023/06/09 00:39:36;;;;;;;17.00;12.60;;;;;;;13.88;79.20;96957.11;105080;1257;96540;-72
2023/06/09 00:42:05;;;;;;;16.50;13.60;;;;;;;13.88;79.21;96955.27;105342;1265;96978;-73
2023/06/09 00:44:34;;;;;;;15.70;13.10;;;;;;;13.88;79.23;96955.28;104831;1261;111203;-75
2023/06/09 00:47:02;;;;;;;16.00;13.10;;;;;;;13.89;79.29;96952.84;105218;1256;101787;-73
2023/06/09 00:49:30;;;;;;;18.60;12.80;;;;;;;13.88;79.32;96954.34;105131;1259;101439;-73
2023/06/09 00:51:59;;;;;;;16.80;12.80;;;;;;;13.88;79.28;96953.48;105039;1259;97859;-72
2023/06/09 00:54:28;;;;;;;13.50;12.00;;;;;;;13.89;79.36;96951.09;105347;1256;97832;-71
2023/06/09 00:56:57;;;;;;;16.40;13.50;;;;;;;13.88;79.38;96955.16;105235;1260;102660;-74
2023/06/09 00:59:28;;;;;;;16.80;12.40;;;;;;;13.85;79.49;96956.09;105325;1255;101868;-75
2023/06/09 01:01:56;;;;;;;16.30;14.00;;;;;;;13.80;79.66;96960.59;105295;1267;100427;-72
2023/06/09 01:04:24;;;;;;;16.50;13.60;;;;;;;13.77;79.69;96950.77;105219;1267;97384;-73
2023/06/09 01:07:08;;;;;;;16.90;13.30;;;;;;;13.77;79.88;96946.53;105267;1267;96978;-73
2023/06/09 01:10:04;;;;;;;16.50;12.30;;;;;;;13.78;79.94;96940.63;105379;1256;102590;-72
2023/06/09 01:12:46;;;;;;;17.50;13.50;;;;;;;13.78;80.02;96940.36;105139;1265;101631;-72
2023/06/09 01:15:32;;;;;;;15.20;12.50;;;;;;;13.75;80.17;96938.36;108396;1251;98454;-72
2023/06/09 01:18:04;;;;;;;16.20;13.20;;;;;;;13.75;80.24;96935.11;108803;1251;94292;-73
2023/06/09 01:20:56;;;;;;;15.50;12.70;;;;;;;13.77;80.29;96932.96;108817;1251;94392;-73
2023/06/09 01:23:33;;;;;;;14.00;12.40;;;;;;;13.78;80.28;96932.59;108798;1251;101900;-73
2023/06/09 01:26:02;;;;;;;14.20;12.20;;;;;;;13.78;80.21;96930.04;108755;1251;99281;-73
2023/06/09 01:28:31;;;;;;;15.10;12.60;;;;;;;13.79;80.34;96926.81;108796;1251;100417;-73
2023/06/09 01:31:00;;;;;;;13.90;12.20;;;;;;;13.80;80.28;96922.98;108440;1251;94438;-73
2023/06/09 01:33:28;;;;;;;13.60;12.00;;;;;;;13.78;80.16;96921.23;108781;1251;94663;-73
2023/06/09 01:35:57;;;;;;;17.20;12.60;;;;;;;13.76;80.02;96919.94;108789;1251;101858;-72
2023/06/09 01:38:26;;;;;;;13.70;12.10;;;;;;;13.75;80.23;96919.66;108799;1251;101102;-73
2023/06/09 01:40:55;;;;;;;13.60;11.60;;;;;;;13.74;80.05;96918.45;108791;1251;100131;-73
2023/06/09 01:43:23;;;;;;;13.80;12.10;;;;;;;13.74;80.10;96915.88;108788;1251;94298;-73
2023/06/09 01:45:51;;;;;;;14.40;12.10;;;;;;;13.74;79.94;96914.21;108857;1251;94688;-74
2023/06/09 01:48:48;;;;;;;15.30;12.10;;;;;;;13.74;79.98;96909.55;108814;1251;101680;-73
2023/06/09 01:51:47;;;;;;;14.70;11.80;;;;;;;13.68;79.85;96914.03;108824;1251;109999;-73
2023/06/09 01:54:22;;;;;;;14.70;11.70;;;;;;;13.63;80.04;96912.04;108756;1251;100091;-74
2023/06/09 01:56:59;;;;;;;13.60;11.70;;;;;;;13.61;80.06;96913.20;108783;1251;94374;-72
2023/06/09 01:59:37;;;;;;;12.30;11.00;;;;;;;13.60;80.07;96909.92;108820;1251;94710;-73
2023/06/09 02:02:06;;;;;;;12.50;11.10;;;;;;;13.59;79.95;96910.08;108610;1251;102289;-75
2023/06/09 02:04:36;;;;;;;12.60;11.30;;;;;;;13.58;79.90;96911.67;108829;1251;101623;-72
2023/06/09 02:07:05;;;;;;;15.10;12.30;;;;;;;13.53;79.71;96905.94;108771;1251;99658;-73
2023/06/09 02:09:34;;;;;;;14.10;11.80;;;;;;;13.50;80.01;96897.38;108746;1251;94444;-74
2023/06/09 02:12:03;;;;;;;14.60;11.20;;;;;;;13.51;80.02;96894.58;108820;1251;95266;-73
2023/06/09 02:14:34;;;;;;;13.60;11.30;;;;;;;13.50;79.76;96894.60;108794;1251;101771;-73
2023/06/09 02:17:04;;;;;;;16.30;12.70;;;;;;;13.44;79.80;96897.67;108814;1251;101211;-76
2023/06/09 02:19:37;;;;;;;12.90;11.10;;;;;;;13.36;79.93;96904.37;108622;1251;99605;-73
2023/06/09 02:22:09;;;;;;;13.60;11.80;;;;;;;13.29;80.32;96904.45;108559;1251;94263;-72
2023/06/09 02:24:37;;;;;;;12.40;10.90;;;;;;;13.25;80.43;96904.75;108791;1251;94285;-73
2023/06/09 02:27:05;;;;;;;15.80;11.90;;;;;;;13.26;80.63;96905.98;108765;1251;101210;-72
2023/06/09 02:29:33;;;;;;;13.20;11.30;;;;;;;13.30;80.62;96905.60;108816;1251;100542;-73
2023/06/09 02:32:02;;;;;;;13.10;11.60;;;;;;;13.31;80.78;96906.58;108755;1251;100092;-77
2023/06/09 02:34:31;;;;;;;15.40;12.30;;;;;;;13.32;80.80;96904.45;108714;1251;94260;-76
2023/06/09 02:37:00;;;;;;;13.50;11.60;;;;;;;13.36;80.70;96905.61;108742;1251;94762;-73
2023/06/09 02:39:28;;;;;;;15.90;11.90;;;;;;;13.40;80.75;96907.90;108776;1251;102184;-73
2023/06/09 02:41:57;;;;;;;16.50;12.10;;;;;;;13.43;80.68;96908.66;108370;1251;99327;-73
2023/06/09 02:44:25;;;;;;;13.90;11.50;;;;;;;13.45;80.69;96909.63;108803;1251;100037;-74
2023/06/09 02:46:53;;;;;;;13.60;11.50;;;;;;;13.46;80.76;96912.15;108815;1251;94533;-72
2023/06/09 02:49:21;;;;;;;15.10;11.40;;;;;;;13.45;80.85;96919.72;108707;1251;94684;-72
2023/06/09 02:51:49;;;;;;;12.90;11.60;;;;;;;13.47;80.77;96921.27;108597;1251;101695;-73
2023/06/09 02:54:18;;;;;;;13.60;11.70;;;;;;;13.48;80.88;96923.59;108808;1252;100323;-73
2023/06/09 02:56:46;;;;;;;12.20;10.80;;;;;;;13.49;80.79;96927.19;108795;1251;100113;-76
2023/06/09 02:59:14;;;;;;;12.40;10.40;;;;;;;13.49;80.67;96924.05;108755;1251;94279;-74
2023/06/09 03:01:43;;;;;;;12.80;11.20;;;;;;;13.47;80.73;96925.73;108853;1251;94644;-72
2023/06/09 03:04:11;;;;;;;15.20;11.90;;;;;;;13.48;80.72;96927.33;108685;1251;101818;-73
2023/06/09 03:06:43;;;;;;;14.00;11.90;;;;;;;13.50;80.76;96929.42;108623;1251;100330;-73
2023/06/09 03:09:12;;;;;;;13.50;12.10;;;;;;;13.52;80.81;96936.50;108812;1251;99570;-73
2023/06/09 03:11:40;;;;;;;13.50;11.60;;;;;;;13.51;80.75;96937.32;108811;1251;94255;-76
2023/06/09 03:14:08;;;;;;;14.10;11.70;;;;;;;13.53;80.89;96938.10;108778;1252;95740;-73
2023/06/09 03:16:36;;;;;;;13.60;11.70;;;;;;;13.57;81.00;96941.15;108823;1251;102126;-76
2023/06/09 03:19:05;;;;;;;12.30;10.80;;;;;;;13.59;81.06;96942.94;108745;1251;101243;-73
2023/06/09 03:21:35;;;;;;;15.20;12.00;;;;;;;13.62;81.03;96948.10;108843;1251;100040;-73
2023/06/09 03:24:04;;;;;;;16.10;13.10;;;;;;;13.66;81.11;96948.42;108797;1251;94192;-77
2023/06/09 03:26:33;;;;;;;14.60;12.90;;;;;;;13.70;81.17;96948.30;108779;1251;94655;-75
2023/06/09 03:29:01;;;;;;;19.30;13.50;;;;;;;13.72;81.17;96946.55;108847;1250;102317;-74
2023/06/09 03:31:29;;;;;;;17.70;13.30;;;;;;;13.75;81.30;96945.48;108793;1251;101249;-73
2023/06/09 03:33:57;;;;;;;17.40;13.50;;;;;;;13.78;81.15;96944.10;108840;1251;99554;-73
2023/06/09 03:36:26;;;;;;;17.90;13.70;;;;;;;13.81;81.11;96941.83;108771;1251;94367;-77
2023/06/09 03:38:54;;;;;;;14.80;13.20;;;;;;;13.82;81.25;96948.43;108852;1251;94576;-73
2023/06/09 03:41:22;;;;;;;16.00;13.00;;;;;;;13.84;81.30;96953.73;108823;1251;102278;-73
2023/06/09 03:43:50;;;;;;;17.90;13.40;;;;;;;13.87;81.30;96949.56;108827;1251;101196;-72
2023/06/09 03:46:18;;;;;;;19.60;12.50;;;;;;;13.90;81.24;96943.09;108765;1251;108548;-73
2023/06/09 03:48:47;;;;;;;15.60;12.30;;;;;;;13.94;81.42;96943.70;108815;1251;94290;-73
2023/06/09 03:51:16;;;;;;;16.60;12.60;;;;;;;13.99;81.45;96942.77;108825;1250;94623;-76
2023/06/09 03:53:44;;;;;;;13.80;12.30;;;;;;;14.02;81.47;96943.96;108806;1250;101831;-73
2023/06/09 03:56:12;;;;;;;13.30;11.90;;;;;;;14.06;81.45;96942.89;108841;1251;101476;-73
2023/06/09 03:58:40;;;;;;;15.90;12.50;;;;;;;14.10;81.56;96941.73;108791;1251;99858;-73
2023/06/09 04:01:10;;;;;;;13.80;12.40;;;;;;;14.14;81.55;96943.67;108760;1251;94470;-73
2023/06/09 04:03:39;;;;;;;15.10;12.30;;;;;;;14.17;81.47;96942.33;108805;1251;94720;-73
2023/06/09 04:06:07;;;;;;;14.60;12.60;;;;;;;14.22;81.41;96943.99;108815;1250;102621;-75
2023/06/09 04:08:36;;;;;;;15.20;13.10;;;;;;;14.26;81.47;96946.60;108786;1251;101323;-73
2023/06/09 04:11:04;;;;;;;17.90;13.30;;;;;;;14.31;81.41;96943.54;108783;1251;100001;-73
2023/06/09 04:13:32;;;;;;;15.70;12.50;;;;;;;14.35;81.41;96944.11;108813;1251;94241;-73
2023/06/09 04:16:00;;;;;;;14.90;12.70;;;;;;;14.39;81.36;96944.02;108784;1251;94558;-73
2023/06/09 04:18:28;;;;;;;14.20;12.50;;;;;;;14.43;81.36;96943.98;108826;1251;102125;-73
2023/06/09 04:20:57;;;;;;;14.50;12.60;;;;;;;14.46;81.48;96946.22;108634;1251;101241;-73
2023/06/09 04:23:27;;;;;;;15.70;12.60;;;;;;;14.49;81.43;96948.21;108786;1251;99919;-73
2023/06/09 04:25:55;;;;;;;15.50;12.40;;;;;;;14.52;81.70;96943.15;108803;1251;94243;-73
2023/06/09 04:28:23;;;;;;;17.00;13.00;;;;;;;14.54;81.42;96946.84;108833;1250;94648;-75
2023/06/09 04:30:51;;;;;;;18.30;12.70;;;;;;;14.57;81.39;96946.98;108825;1251;102150;-73
2023/06/09 04:33:19;;;;;;;14.10;12.30;;;;;;;14.60;81.46;96946.61;108844;1251;101239;-75
2023/06/09 04:35:54;;;;;;;17.40;12.90;;;;;;;14.64;81.30;96948.23;108804;1251;99918;-73
2023/06/09 04:38:23;;;;;;;19.10;13.40;;;;;;;14.67;81.37;96946.71;108850;1251;94462;-76
2023/06/09 04:40:51;;;;;;;14.90;12.90;;;;;;;14.69;81.28;96945.27;108831;1251;94697;-73
2023/06/09 04:43:19;;;;;;;14.20;12.70;;;;;;;14.69;81.26;96943.70;108790;1250;102289;-73
2023/06/09 04:45:48;;;;;;;15.20;12.90;;;;;;;14.71;81.19;96943.25;108849;1251;101346;-75
2023/06/09 04:48:17;;;;;;;18.40;14.60;;;;;;;14.72;81.20;96942.07;108833;1252;99890;-73
2023/06/09 04:50:47;;;;;;;19.70;15.10;;;;;;;14.76;81.35;96945.86;108847;1251;94213;-73
2023/06/09 04:53:18;;;;;;;17.80;13.70;;;;;;;14.79;81.09;96941.89;108759;1252;94987;-73
2023/06/09 04:55:48;;;;;;;16.30;13.50;;;;;;;14.84;81.26;96940.28;108821;1251;102369;-72
2023/06/09 04:58:18;;;;;;;19.50;14.50;;;;;;;14.89;81.42;96937.79;108847;1251;101336;-73
2023/06/09 05:00:46;;;;;;;18.20;14.10;;;;;;;14.91;81.20;96937.98;108803;1251;100146;-74
2023/06/09 05:03:17;;;;;;;16.10;13.90;;;;;;;14.92;81.35;96937.50;108740;1251;94544;-73
2023/06/09 05:05:45;;;;;;;17.10;14.10;;;;;;;14.96;81.58;96932.45;108807;1251;94758;-73
2023/06/09 05:08:15;;;;;;;16.50;14.20;;;;;;;15.01;81.38;96934.36;108787;1251;102721;-73
2023/06/09 05:10:43;;;;;;;16.70;14.20;;;;;;;15.05;81.35;96936.55;108798;1250;101445;-74
2023/06/09 05:13:11;;;;;;;18.50;16.60;;;;;;;15.09;81.16;96936.55;108828;1251;99895;-77
2023/06/09 05:15:39;;;;;;;18.30;16.30;;;;;;;15.13;81.28;96936.66;108378;1251;94538;-76
2023/06/09 05:18:08;;;;;;;17.60;14.80;;;;;;;15.17;81.41;96932.38;108845;1251;94656;-75
2023/06/09 05:20:36;;;;;;;19.70;15.90;;;;;;;15.21;81.31;96933.02;108776;1251;102026;-73
2023/06/09 05:23:04;;;;;;;22.00;15.80;;;;;;;15.26;81.20;96933.89;108503;1251;100171;-75
2023/06/09 05:25:32;;;;;;;19.90;16.10;;;;;;;15.30;81.29;96936.62;108777;1251;99868;-73
2023/06/09 05:28:00;;;;;;;21.00;16.10;;;;;;;15.35;81.27;96937.80;108813;1251;94263;-73
2023/06/09 05:30:29;;;;;;;22.20;16.70;;;;;;;15.39;81.22;96934.71;108822;1251;95159;-77
2023/06/09 05:32:57;;;;;;;21.60;16.10;;;;;;;15.44;81.05;96934.89;108790;1251;102210;-74
2023/06/09 05:35:25;;;;;;;18.90;16.30;;;;;;;15.49;81.20;96939.73;108856;1250;101284;-73
2023/06/09 05:37:53;;;;;;;20.80;16.00;;;;;;;15.55;81.34;96940.81;108797;1251;99883;-73
2023/06/09 05:40:21;;;;;;;19.30;16.40;;;;;;;15.62;81.21;96933.55;108827;1251;94175;-73
2023/06/09 05:42:50;;;;;;;17.70;15.60;;;;;;;15.67;81.28;96936.39;108801;1251;94528;-73
2023/06/09 05:45:18;;;;;;;18.70;15.70;;;;;;;15.73;81.32;96936.94;108810;1251;102500;-73
2023/06/09 05:47:48;;;;;;;21.30;15.90;;;;;;;15.79;81.15;96940.83;108857;1251;101295;-72
2023/06/09 05:50:16;;;;;;;20.80;15.70;;;;;;;15.84;81.00;96937.93;108762;1251;100105;-76
2023/06/09 05:52:44;;;;;;;21.30;15.20;;;;;;;15.90;80.94;96938.93;108765;1251;94504;-73
2023/06/09 05:55:13;;;;;;;21.50;14.90;;;;;;;15.96;80.87;96936.59;108849;1251;95082;-73
2023/06/09 05:57:41;;;;;;;16.30;13.80;;;;;;;16.03;80.70;96940.15;108611;1251;102350;-73
2023/06/09 06:00:10;;;;;;;16.80;13.60;;;;;;;16.10;80.80;96941.47;108838;1250;101097;-74
2023/06/09 06:02:39;;;;;;;17.60;13.70;;;;;;;16.17;80.84;96944.59;108542;1251;99952;-73
2023/06/09 06:05:08;;;;;;;15.90;14.10;;;;;;;16.28;80.79;96945.77;108799;1251;94470;-73
2023/06/09 06:07:37;;;;;;;15.10;13.20;;;;;;;16.38;80.72;96942.86;108790;1251;94678;-73
2023/06/09 06:10:07;;;;;;;18.20;14.00;;;;;;;16.49;80.59;96944.59;108859;1251;102176;-73
2023/06/09 06:12:35;;;;;;;16.30;14.10;;;;;;;16.61;80.62;96946.84;108843;1251;101301;-76
2023/06/09 06:15:03;;;;;;;14.90;13.30;;;;;;;16.74;80.55;96941.05;108505;1251;100065;-72
2023/06/09 06:17:32;;;;;;;14.50;12.20;;;;;;;16.86;80.32;96938.14;108851;1251;94640;-73
2023/06/09 06:20:00;;;;;;;16.20;12.20;;;;;;;16.98;80.23;96936.04;108780;1251;95205;-74
2023/06/09 06:22:28;;;;;;;13.40;12.00;;;;;;;17.07;79.83;96933.80;108776;1251;102366;-73
2023/06/09 06:24:57;;;;;;;12.80;11.40;;;;;;;17.11;79.44;96935.90;108520;1251;109714;-73
2023/06/09 06:27:25;;;;;;;14.70;12.00;;;;;;;17.19;79.66;96933.55;108865;1251;99583;-77
2023/06/09 06:29:53;;;;;;;13.30;11.50;;;;;;;17.27;79.31;96932.60;108527;1251;94798;-73
2023/06/09 06:32:21;;;;;;;13.30;11.80;;;;;;;17.38;79.49;96933.91;108816;1251;94449;-76
2023/06/09 06:34:50;;;;;;;14.80;11.60;;;;;;;17.50;79.43;96933.46;108807;1251;102236;-74
2023/06/09 06:37:18;;;;;;;14.50;11.20;;;;;;;17.58;79.13;96936.02;108857;1251;101521;-73
2023/06/09 06:39:46;;;;;;;12.00;10.80;;;;;;;17.70;78.98;96934.45;108773;1251;99887;-74
2023/06/09 06:42:14;;;;;;;15.60;11.30;;;;;;;17.82;78.59;96931.81;108790;1251;94461;-74
2023/06/09 06:44:42;;;;;;;12.70;11.40;;;;;;;17.98;78.59;96929.55;108803;1251;94672;-74
2023/06/09 06:47:10;;;;;;;12.40;11.10;;;;;;;18.13;78.72;96924.23;108844;1251;102149;-77
2023/06/09 06:49:38;;;;;;;11.50;10.30;;;;;;;18.25;78.22;96920.69;108844;1251;101597;-75
2023/06/09 06:52:07;;;;;;;10.40;9.30;;;;;;;18.32;77.87;96919.55;108821;1251;99994;-74
2023/06/09 06:54:35;;;;;;;11.50;10.20;;;;;;;18.37;77.53;96914.52;108802;1252;94205;-74
2023/06/09 06:57:03;;;;;;;11.60;10.00;;;;;;;18.45;77.32;96913.71;108792;1251;94637;-75
2023/06/09 06:59:31;;;;;;;10.40;9.40;;;;;;;18.53;77.09;96915.83;108831;1253;101703;-74
2023/06/09 07:01:59;;;;;;;9.90;8.90;;;;;;;18.59;76.68;96918.20;108802;1251;101829;-76
2023/06/09 07:04:27;;;;;;;10.80;9.30;;;;;;;18.66;76.60;96918.21;108785;1250;108540;-73
2023/06/09 07:06:55;;;;;;;10.50;9.40;;;;;;;18.77;76.43;96923.35;108828;1251;94453;-76
2023/06/09 07:09:25;;;;;;;10.30;9.30;;;;;;;18.90;76.27;96924.92;108808;1251;94550;-75
2023/06/09 07:11:57;;;;;;;10.20;9.20;;;;;;;19.01;75.95;96921.56;108800;1252;100682;-74
2023/06/09 07:14:25;;;;;;;10.30;9.30;;;;;;;19.09;75.69;96917.55;108811;1251;101391;-74
2023/06/09 07:16:53;;;;;;;11.80;9.60;;;;;;;19.18;75.61;96916.49;108605;1253;99897;-74
2023/06/09 07:19:21;;;;;;;9.80;8.80;;;;;;;19.27;75.45;96916.73;108817;1252;94455;-75
2023/06/09 07:21:49;;;;;;;10.40;9.40;;;;;;;19.39;75.58;96910.46;108811;1251;94655;-74
2023/06/09 07:24:17;;;;;;;11.90;9.30;;;;;;;19.53;75.07;96908.34;108695;1251;211404;-75
2023/06/09 07:26:46;;;;;;;11.30;9.50;;;;;;;19.66;74.91;96910.08;108789;1251;101199;-74
2023/06/09 07:29:14;;;;;;;10.40;9.40;;;;;;;19.80;75.09;96905.41;108625;1251;99749;-76
2023/06/09 07:31:42;;;;;;;10.00;9.00;;;;;;;19.90;74.82;96904.27;108791;1251;94189;-76
2023/06/09 07:34:10;;;;;;;11.10;9.90;;;;;;;19.97;74.26;96902.09;108791;1251;94691;-74
2023/06/09 07:36:40;;;;;;;9.90;8.90;;;;;;;20.05;74.05;96902.14;108831;1251;102213;-75
2023/06/09 07:39:08;;;;;;;10.10;9.00;;;;;;;20.12;73.60;96902.05;108803;1251;101656;-74
2023/06/09 07:41:36;;;;;;;10.20;9.00;;;;;;;20.17;73.52;96901.18;108792;1251;99671;-75
2023/06/09 07:44:06;;;;;;;9.80;8.80;;;;;;;20.22;73.39;96898.14;108806;1251;94488;-75
2023/06/09 07:46:34;;;;;;;10.10;9.00;;;;;;;20.31;73.38;96895.55;108572;1253;94759;-74
2023/06/09 07:49:02;;;;;;;10.60;9.10;;;;;;;20.43;72.88;96889.89;108852;1251;101955;-75
2023/06/09 07:51:36;;;;;;;9.90;9.00;;;;;;;20.54;72.87;96888.23;108817;1251;101367;-76
2023/06/09 07:54:05;;;;;;;9.10;8.20;;;;;;;20.61;72.59;96893.43;108819;1251;99851;-74
2023/06/09 07:56:34;;;;;;;10.30;9.00;;;;;;;20.70;72.37;96892.73;108771;1251;94527;-74
2023/06/09 07:59:04;;;;;;;10.30;8.70;;;;;;;20.84;72.43;96887.71;108754;1252;95181;-74
2023/06/09 08:01:33;;;;;;;10.40;8.90;;;;;;;21.02;72.26;96884.96;108839;1251;101675;-75
2023/06/09 08:04:02;;;;;;;9.30;8.30;;;;;;;21.22;72.05;96885.97;108776;1251;101148;-73
2023/06/09 08:06:31;;;;;;;9.10;7.80;;;;;;;21.40;71.28;96882.96;108787;1251;98881;-74
2023/06/09 08:08:59;;;;;;;8.30;7.50;;;;;;;21.70;71.07;96882.75;108834;1251;94247;-75
2023/06/09 08:11:27;;;;;;;8.80;7.40;;;;;;;22.04;70.58;96879.05;108522;1251;94683;-75
2023/06/09 08:13:55;;;;;;;9.00;7.90;;;;;;;22.36;70.07;96878.29;108822;1251;101317;-75
2023/06/09 08:16:23;;;;;;;9.30;8.20;;;;;;;22.70;70.00;96876.19;108784;1251;101673;-74
2023/06/09 08:18:51;;;;;;;16.20;8.30;;;;;;;23.07;69.36;96874.96;108781;1252;99913;-76
2023/06/09 08:21:20;;;;;;;8.00;7.20;;;;;;;23.44;68.49;96870.19;108775;1251;94509;-75
2023/06/09 08:23:48;;;;;;;9.40;7.30;;;;;;;23.84;67.96;96867.48;108464;1251;95400;-76
2023/06/09 08:26:16;;;;;;;8.50;7.10;;;;;;;24.28;67.54;96866.38;108619;1251;100734;-75
2023/06/09 08:28:44;;;;;;;7.80;6.90;;;;;;;24.53;67.25;96860.92;108838;1251;101306;-75
2023/06/09 08:31:12;;;;;;;10.30;7.50;;;;;;;24.65;66.27;96857.85;108780;1251;99793;-76
2023/06/09 08:33:41;;;;;;;13.50;7.20;;;;;;;24.71;65.23;96858.52;108494;1251;94273;-75
2023/06/09 08:36:14;;;;;;;7.00;6.40;;;;;;;24.73;64.60;96855.15;108814;1251;94572;-77
2023/06/09 08:38:42;;;;;;;8.90;6.10;;;;;;;24.94;64.16;96855.90;108854;1251;102103;-75
2023/06/09 08:41:12;;;;;;;8.50;6.80;;;;;;;25.08;63.89;96855.60;108777;1251;101255;-77
2023/06/09 08:43:40;;;;;;;7.80;6.30;;;;;;;24.99;63.49;96859.77;108802;1251;100235;-75
2023/06/09 08:46:12;;;;;;;6.50;5.90;;;;;;;24.85;63.41;96858.66;108772;1252;94580;-76
2023/06/09 08:48:47;;;;;;;7.50;6.40;;;;;;;24.76;63.11;96855.84;108681;1251;94418;-75
2023/06/09 08:51:16;;;;;;;9.50;6.60;;;;;;;24.65;63.08;96848.92;108813;1251;102163;-76
2023/06/09 08:53:45;;;;;;;8.30;7.60;;;;;;;24.49;62.94;96852.52;108802;1251;110216;-75
2023/06/09 08:56:13;;;;;;;7.50;6.80;;;;;;;24.41;62.50;96853.38;108769;1254;100115;-75
2023/06/09 08:58:41;;;;;;;12.60;10.70;;;;;;;24.34;62.43;96855.75;108784;1251;94201;-76
2023/06/09 09:01:10;;;;;;;10.00;7.70;;;;;;;24.25;62.49;96857.70;108791;1251;94503;-75
2023/06/09 09:03:38;;;;;;;8.80;7.80;;;;;;;24.16;62.48;96857.98;108798;1251;102067;-75
2023/06/09 09:06:08;;;;;;;7.90;7.00;;;;;;;24.04;62.46;96859.08;108834;1251;101458;-75
2023/06/09 09:08:36;;;;;;;7.50;6.80;;;;;;;23.90;62.57;96853.63;108734;1251;99987;-75
2023/06/09 09:11:05;;;;;;;8.00;7.20;;;;;;;23.76;62.70;96846.95;108785;1252;95085;-76
2023/06/09 09:13:33;;;;;;;7.90;7.10;;;;;;;23.66;62.97;96850.58;108866;1251;94419;-77
2023/06/09 09:16:02;;;;;;;7.20;6.50;;;;;;;23.54;63.14;96851.32;108782;1254;101927;-75
2023/06/09 09:18:32;;;;;;;7.90;7.20;;;;;;;23.41;63.17;96846.11;108835;1251;101247;-75
2023/06/09 09:21:02;;;;;;;8.80;7.20;;;;;;;23.28;63.19;96841.64;108793;1251;99893;-75
2023/06/09 09:23:34;;;;;;;8.50;7.50;;;;;;;23.17;63.30;96842.31;108748;1251;94283;-75
2023/06/09 09:26:03;;;;;;;7.70;6.90;;;;;;;23.08;63.49;96834.77;108797;1253;94313;-75
2023/06/09 09:28:42;;;;;;;8.70;6.70;;;;;;;23.03;63.65;96834.83;108824;1251;102136;-76
2023/06/09 09:31:11;;;;;;;8.20;7.00;;;;;;;22.94;63.77;96831.41;108781;1250;101207;-74
2023/06/09 09:33:47;;;;;;;8.60;7.80;;;;;;;22.90;63.97;96829.35;108791;1252;99936;-76
2023/06/09 09:36:15;;;;;;;8.40;7.60;;;;;;;22.90;64.11;96830.34;108691;1253;95693;-75
2023/06/09 09:38:44;;;;;;;8.50;7.60;;;;;;;22.90;64.01;96824.29;108826;1251;94564;-76
2023/06/09 09:41:15;;;;;;;8.10;7.30;;;;;;;22.92;63.97;96819.08;108830;1253;102419;-75
2023/06/09 09:43:47;;;;;;;9.20;7.40;;;;;;;23.02;64.11;96818.55;108792;1251;101180;-77
2023/06/09 09:46:20;;;;;;;8.40;7.60;;;;;;;23.33;64.55;96815.26;108790;1253;100464;-75
2023/06/09 09:48:49;;;;;;;9.00;7.50;;;;;;;23.66;64.30;96812.77;108535;1253;94618;-75
2023/06/09 09:51:20;;;;;;;10.50;8.40;;;;;;;23.87;63.60;96812.02;108766;1251;94618;-76
2023/06/09 09:53:50;;;;;;;12.00;8.60;;;;;;;24.11;63.83;96813.98;108495;1251;101255;-76
2023/06/09 09:56:22;;;;;;;9.70;8.60;;;;;;;24.38;63.50;96815.77;108777;1251;101331;-77
2023/06/09 09:58:54;;;;;;;8.60;7.80;;;;;;;24.33;62.44;96816.61;108791;1251;100010;-76
2023/06/09 10:01:24;;;;;;;;;;;;;;;24.19;62.25;96823.77;108441;1251;94406;-76
2023/06/09 10:03:55;;;;;;;11.30;8.20;;;;;;;24.09;61.97;96823.56;108784;1250;94722;-75
2023/06/09 10:06:29;;;;;;;9.10;8.20;;;;;;;23.96;61.90;96822.71;108807;1251;101716;-75
2023/06/09 10:08:58;;;;;;;9.00;8.10;;;;;;;23.85;61.95;96815.92;108812;1252;101408;-75
2023/06/09 10:11:32;;;;;;;9.30;8.20;;;;;;;23.76;61.94;96805.88;108536;1253;99486;-76
2023/06/09 10:14:00;;;;;;;8.90;8.00;;;;;;;23.65;61.71;96798.14;108803;1253;94291;-77
2023/06/09 10:16:29;;;;;;;9.30;8.00;;;;;;;23.50;61.71;96798.79;108740;1253;94701;-76
2023/06/09 10:18:58;;;;;;;9.40;7.90;;;;;;;23.39;61.76;96802.27;108851;1255;102333;-76
2023/06/09 10:21:26;;;;;;;8.60;7.80;;;;;;;23.33;61.84;96795.52;108802;1253;101221;-75
2023/06/09 10:23:56;;;;;;;8.20;7.40;;;;;;;23.32;61.73;96792.44;108782;1252;99901;-75
2023/06/09 10:26:25;;;;;;;10.10;7.70;;;;;;;23.25;61.54;96795.50;108775;1253;94593;-75
2023/06/09 10:28:53;;;;;;;12.40;7.40;;;;;;;23.19;61.64;96805.55;108717;1252;96086;-75
2023/06/09 10:31:24;;;;;;;10.20;8.30;;;;;;;23.13;61.88;96815.02;108779;1252;100925;-75
2023/06/09 10:33:54;;;;;;;10.00;9.00;;;;;;;23.05;61.95;96816.13;108774;1253;100398;-75
2023/06/09 10:36:22;;;;;;;10.60;9.10;;;;;;;22.98;62.08;96816.63;108757;1253;99964;-77
2023/06/09 10:38:53;;;;;;;12.50;9.20;;;;;;;22.94;62.43;96814.25;108737;1253;94232;-77
2023/06/09 10:41:41;;;;;;;13.10;9.60;;;;;;;22.89;62.41;96818.46;108773;1253;94946;-75
2023/06/09 10:44:32;;;;;;;11.20;9.70;;;;;;;22.79;62.28;96824.05;108772;1253;101117;-76
2023/06/09 10:47:00;;;;;;;11.50;10.30;;;;;;;22.68;62.37;96820.32;108499;1252;100559;-76
2023/06/09 10:49:35;;;;;;;11.60;10.30;;;;;;;22.59;62.41;96815.13;108467;1253;100304;-75
2023/06/09 10:52:05;;;;;;;13.60;10.90;;;;;;;22.42;62.19;96822.04;108798;1253;94463;-75
2023/06/09 10:54:35;;;;;;;11.60;10.10;;;;;;;22.27;62.78;96831.20;108790;1252;94717;-77
2023/06/09 10:57:06;;;;;;;12.70;11.00;;;;;;;22.16;63.14;96841.87;108826;1251;102124;-75
2023/06/09 10:59:37;;;;;;;13.60;10.90;;;;;;;22.09;63.15;96841.77;108751;1253;101196;-74
2023/06/09 11:02:05;;;;;;;15.10;11.60;;;;;;;22.03;63.63;96845.43;108526;1253;99890;-73
2023/06/09 11:04:41;;;;;;;20.60;12.50;;;;;;;21.87;64.35;96862.73;108742;1253;94302;-75
2023/06/09 11:07:17;;;;;;;25.80;11.00;;;;;;;21.77;64.89;96873.64;108809;1253;95221;-75
2023/06/09 11:09:48;;;;;;;14.40;6.90;;;;;;;21.61;64.73;96878.80;108660;1251;102015;-78
2023/06/09 11:12:26;;;;;;;9.10;5.60;;;;;;;21.31;64.38;96874.55;108776;1251;101290;-75
2023/06/09 11:14:57;;;;;;;11.10;5.20;;;;;;;20.95;64.92;96868.17;108780;1251;99801;-76
2023/06/09 11:17:36;;;;;;;9.40;4.40;;;;;;;20.67;65.11;96866.20;108807;1251;94212;-76
2023/06/09 11:20:11;;;;;;;6.10;4.60;;;;;;;20.40;65.43;96869.36;108772;1251;94589;-75
2023/06/09 11:22:42;;;;;;;7.50;4.50;;;;;;;20.13;65.88;96885.98;108812;1251;102049;-77